AirNav   Everest Fuels
 
 1520 users online  

2MN8 Med-City Aviation Airport
Rochester, Minnesota, USA

GOING TO ROCHESTER?


FAA INFORMATION EFFECTIVE 08 OCTOBER 2020

Location

FAA Identifier: 2MN8
Lat/Long: 43-59-45.8700N 092-20-08.6110W
43-59.764500N 092-20.143517W
43.9960750,-92.3357253
(estimated)
Elevation: 1227 ft. / 374.0 m (surveyed)
Variation: 02E (1985)
From city: 6 miles W of ROCHESTER, MN
Time zone: UTC -5 (UTC -6 during Standard Time)
Zip code: 55934

Airport Operations

Airport use: Private use. Permission required prior to landing
Activation date: 04/1995
Control tower: no
ARTCC: MINNEAPOLIS CENTER
FSS: PRINCETON FLIGHT SERVICE STATION
Attendance: UNATNDD
Wind indicator: yes
Segmented circle: no

Airport Communications

WX ASOS at RST (9 nm SW): 120.5 (507-424-8146)

Nearby radio navigation aids

VOR radial/distance  VOR name  Freq  Var
RSTr036/17.1ROCHESTER VOR/DME112.0005E
JAYr045/35.7AUSTIN VOR/DME108.2000E
ODIr277/37.8NODINE VORTAC117.9001E

Airport Services

Parking: tiedowns
Bottled oxygen: NONE
Bulk oxygen: NONE

Runway Information

Runway 9/27

Dimensions: 2500 x 40 ft. / 762 x 12 m
Surface: asphalt/turf
RUNWAY 9  RUNWAY 27
Traffic pattern: leftleft
Displaced threshold: 370 ft.no
Markings: numbers only, in good conditionnumbers only, in good condition
Runway end identifier lights: yes
REIL ON RWY & REIL RWY 27 NSTD.
yes
Obstructions: trees, 315 ft. from runway, 4:1 slope to clear
+13'ROAD 120' RT OF CNRLN; +12'TREES 100' LT OF CNRLN 7.7:1.
none
+21'TREES 25' FROM THR 60' LT OF CNTRLN 1.2:1.

Airport Ownership and Management from official FAA records

Ownership: Privately-owned
Owner: ANDREW DISTAD
1772 CHESTER ROAD SE
ROCHESTER, MN 55904
Phone (507) 208-0191
Manager: ANDREW DISTAD
1772 CHESTER ROAD SE
ROCHESTER, MN 55904
Phone (507) 208-0191

Airport Operational Statistics

Aircraft based on the field: 2
Multi engine airplanes: 2
    

Additional Remarks

FOR CD CTC MINNEAPOLIS ARTCC AT 651-463-5588.

Instrument Procedures

There are no published instrument procedures at 2MN8.

Some nearby airports with instrument procedures:

KRST - Rochester International Airport (9 nm SW)
KFKA - Fillmore County Airport (20 nm S)
KTOB - Dodge Center Airport (21 nm W)
55Y - Rushford Municipal-Robert W Bunke Field Airport (24 nm SE)
KONA - Winona Municipal Airport-Max Conrad Field (27 nm E)
 
Loc | Ops | Rwys | IFR | FBO | Links
Com | Nav | Svcs | Stats | Notes
Area around 2MN8 (Med-City Aviation Airport)
 
Road maps at: MapQuest Bing Google
 
Aerial photo
No photo
 
Sectional chart

 
Airport distance calculator
Flying to Med-City Aviation Airport? Find the distance to fly.

From to 2MN8

Sunrise and sunset
Times for 22-Oct-2020
 Local
(UTC-5)
 Zulu
(UTC)
Morning civil twilight07:0612:06
Sunrise07:3512:35
Sunset18:1223:12
Evening civil twilight18:4223:42

Current date and time
Zulu (UTC)  22-Oct-2020 20:46:58
Local (UTC-5)  22-Oct-2020 15:46:58
 
METAR
K9MN 
7nm W 
222035Z AUTO 03008KT 010V070 7SM OVC004 01/01 A2995 RMK AO1 T00110012
KRST 
9nm SW 
221954Z 06013G23KT 2SM BR OVC006 01/00 A2993 RMK AO2 RAE00 SLP149 P0000 T00110000
KFKA 
20nm S 
222035Z AUTO 04009G14KT 1 3/4SM BR OVC004 01/01 A2992 RMK AO2 LTG DSNT E P0001 T00130006
TAF
KRST 
9nm SW 
221721Z 2218/2318 06015G22KT 6SM -SHRA OVC005 FM230000 01013KT P6SM OVC004 FM231200 34016KT P6SM OVC008
NOTAMs
Click for the latest NOTAMs
NOTAMs are issued by the DoD/FAA and will open in a separate window not controlled by AirNav.

 

 
 

Would you like to see your business listed on this page?

 If your business provides an interesting product or service to pilots, flight crews, aircraft, or users of the Med-City Aviation Airport, you should consider listing it here.  To start the listing process, click on the button below
 
Add a business
 

Other Pages about Med-City Aviation Airport

Update a link
 
Copyright © AirNav, LLC. All rights reserved. Privacy Policy  Contact